sensor_id;sensor_type;location;lat;lon;timestamp;pressure;altitude;pressure_sealevel;temperature;humidity
2268;BME280;11052;43.338;25.502;2022-11-25T00:00:51;100362.19;;;7.44;100.00
2268;BME280;11052;43.338;25.502;2022-11-25T00:03:18;100351.88;;;7.44;100.00
2268;BME280;11052;43.338;25.502;2022-11-25T00:05:47;100357.88;;;7.45;100.00
2268;BME280;11052;43.338;25.502;2022-11-25T00:08:14;100356.94;;;7.50;100.00
2268;BME280;11052;43.338;25.502;2022-11-25T00:10:41;100356.13;;;7.47;100.00
2268;BME280;11052;43.338;25.502;2022-11-25T00:13:08;100354.25;;;7.56;100.00
2268;BME280;11052;43.338;25.502;2022-11-25T00:15:35;100365.44;;;7.55;100.00
2268;BME280;11052;43.338;25.502;2022-11-25T00:18:02;100356.81;;;7.56;100.00
2268;BME280;11052;43.338;25.502;2022-11-25T00:20:29;100349.06;;;7.58;100.00
2268;BME280;11052;43.338;25.502;2022-11-25T00:22:57;100355.19;;;7.52;100.00
2268;BME280;11052;43.338;25.502;2022-11-25T00:25:24;100354.28;;;7.53;100.00
2268;BME280;11052;43.338;25.502;2022-11-25T00:27:51;100358.59;;;7.53;100.00
2268;BME280;11052;43.338;25.502;2022-11-25T00:30:19;100355.97;;;7.56;100.00
2268;BME280;11052;43.338;25.502;2022-11-25T00:32:46;100361.16;;;7.54;100.00
2268;BME280;11052;43.338;25.502;2022-11-25T00:35:13;100365.50;;;7.52;100.00
2268;BME280;11052;43.338;25.502;2022-11-25T00:37:40;100360.34;;;7.52;100.00
2268;BME280;11052;43.338;25.502;2022-11-25T00:40:10;100360.25;;;7.57;100.00
2268;BME280;11052;43.338;25.502;2022-11-25T00:42:37;100361.22;;;7.51;100.00
2268;BME280;11052;43.338;25.502;2022-11-25T00:45:21;100362.72;;;7.63;100.00
2268;BME280;11052;43.338;25.502;2022-11-25T00:47:49;100362.72;;;7.63;100.00
2268;BME280;11052;43.338;25.502;2022-11-25T00:50:16;100367.06;;;7.61;100.00
2268;BME280;11052;43.338;25.502;2022-11-25T00:52:43;100366.13;;;7.65;100.00
2268;BME280;11052;43.338;25.502;2022-11-25T00:55:11;100369.53;;;7.69;100.00
2268;BME280;11052;43.338;25.502;2022-11-25T00:57:39;100366.13;;;7.65;100.00
2268;BME280;11052;43.338;25.502;2022-11-25T01:00:08;100370.44;;;7.65;100.00
2268;BME280;11052;43.338;25.502;2022-11-25T01:02:36;100372.09;;;7.69;100.00
2268;BME280;11052;43.338;25.502;2022-11-25T01:05:03;100370.41;;;7.68;100.00
2268;BME280;11052;43.338;25.502;2022-11-25T01:07:30;100372.97;;;7.68;100.00
2268;BME280;11052;43.338;25.502;2022-11-25T01:09:57;100373.13;;;7.59;100.00
2268;BME280;11052;43.338;25.502;2022-11-25T01:12:26;100372.19;;;7.63;100.00
2268;BME280;11052;43.338;25.502;2022-11-25T01:14:53;100374.06;;;7.54;100.00
2268;BME280;11052;43.338;25.502;2022-11-25T01:17:20;100370.63;;;7.54;100.00
2268;BME280;11052;43.338;25.502;2022-11-25T01:19:47;100373.94;;;7.61;100.00
2268;BME280;11052;43.338;25.502;2022-11-25T01:22:14;100386.81;;;7.64;100.00
2268;BME280;11052;43.338;25.502;2022-11-25T01:24:41;100390.16;;;7.69;100.00
2268;BME280;11052;43.338;25.502;2022-11-25T01:27:08;100387.72;;;7.61;100.00
2268;BME280;11052;43.338;25.502;2022-11-25T01:29:37;100394.66;;;7.56;100.00
2268;BME280;11052;43.338;25.502;2022-11-25T01:32:06;100392.72;;;7.70;100.00
2268;BME280;11052;43.338;25.502;2022-11-25T01:34:33;100403.06;;;7.69;100.00
2268;BME280;11052;43.338;25.502;2022-11-25T01:37:01;100399.66;;;7.67;100.00
2268;BME280;11052;43.338;25.502;2022-11-25T01:39:29;100398.06;;;7.60;100.00
2268;BME280;11052;43.338;25.502;2022-11-25T01:41:56;100400.47;;;7.69;100.00
2268;BME280;11052;43.338;25.502;2022-11-25T01:44:26;100397.13;;;7.64;100.00
2268;BME280;11052;43.338;25.502;2022-11-25T01:47:04;100400.56;;;7.64;100.00
2268;BME280;11052;43.338;25.502;2022-11-25T01:49:37;100395.66;;;7.47;100.00
2268;BME280;11052;43.338;25.502;2022-11-25T01:52:12;100395.47;;;7.60;100.00
2268;BME280;11052;43.338;25.502;2022-11-25T01:54:46;100404.97;;;7.56;100.00
2268;BME280;11052;43.338;25.502;2022-11-25T01:57:19;100408.38;;;7.58;100.00
2268;BME280;11052;43.338;25.502;2022-11-25T01:59:50;100409.19;;;7.62;100.00
2268;BME280;11052;43.338;25.502;2022-11-25T02:02:19;100401.44;;;7.63;100.00
2268;BME280;11052;43.338;25.502;2022-11-25T02:04:47;100404.19;;;7.52;100.00
2268;BME280;11052;43.338;25.502;2022-11-25T02:07:21;100414.44;;;7.55;100.00
2268;BME280;11052;43.338;25.502;2022-11-25T02:09:51;100417.97;;;7.50;100.00
2268;BME280;11052;43.338;25.502;2022-11-25T02:12:19;100412.84;;;7.48;100.00
2268;BME280;11052;43.338;25.502;2022-11-25T02:14:48;100416.97;;;7.59;100.00
2268;BME280;11052;43.338;25.502;2022-11-25T02:17:16;100419.59;;;7.57;100.00
2268;BME280;11052;43.338;25.502;2022-11-25T02:19:57;100421.34;;;7.53;100.00
2268;BME280;11052;43.338;25.502;2022-11-25T02:22:32;100423.94;;;7.53;100.00
2268;BME280;11052;43.338;25.502;2022-11-25T02:25:12;100416.16;;;7.56;100.00
2268;BME280;11052;43.338;25.502;2022-11-25T02:27:39;100423.88;;;7.56;100.00
2268;BME280;11052;43.338;25.502;2022-11-25T02:30:07;100423.91;;;7.55;100.00
2268;BME280;11052;43.338;25.502;2022-11-25T02:32:42;100429.84;;;7.60;100.00
2268;BME280;11052;43.338;25.502;2022-11-25T02:35:29;100415.41;;;7.50;100.00
2268;BME280;11052;43.338;25.502;2022-11-25T02:38:02;100425.56;;;7.61;100.00
2268;BME280;11052;43.338;25.502;2022-11-25T02:40:34;100425.63;;;7.56;100.00
2268;BME280;11052;43.338;25.502;2022-11-25T02:43:03;100428.22;;;7.54;100.00
2268;BME280;11052;43.338;25.502;2022-11-25T02:45:41;100423.78;;;7.64;100.00
2268;BME280;11052;43.338;25.502;2022-11-25T02:48:10;100427.28;;;7.60;100.00
2268;BME280;11052;43.338;25.502;2022-11-25T02:50:37;100429.94;;;7.55;100.00
2268;BME280;11052;43.338;25.502;2022-11-25T02:53:04;100422.00;;;7.68;100.00
2268;BME280;11052;43.338;25.502;2022-11-25T02:55:34;100424.63;;;7.65;100.00
2268;BME280;11052;43.338;25.502;2022-11-25T02:58:01;100420.38;;;7.62;100.00
2268;BME280;11052;43.338;25.502;2022-11-25T03:00:28;100428.88;;;7.67;100.00
2268;BME280;11052;43.338;25.502;2022-11-25T03:02:55;100424.59;;;7.66;100.00
2268;BME280;11052;43.338;25.502;2022-11-25T03:05:22;100432.38;;;7.65;100.00
2268;BME280;11052;43.338;25.502;2022-11-25T03:07:49;100424.66;;;7.63;100.00
2268;BME280;11052;43.338;25.502;2022-11-25T03:10:17;100430.63;;;7.67;100.00
2268;BME280;11052;43.338;25.502;2022-11-25T03:12:46;100430.72;;;7.61;100.00
2268;BME280;11052;43.338;25.502;2022-11-25T03:15:13;100437.53;;;7.63;100.00
2268;BME280;11052;43.338;25.502;2022-11-25T03:17:40;100440.25;;;7.55;100.00
2268;BME280;11052;43.338;25.502;2022-11-25T03:20:08;100436.69;;;7.63;100.00
2268;BME280;11052;43.338;25.502;2022-11-25T03:22:37;100439.22;;;7.66;100.00
2268;BME280;11052;43.338;25.502;2022-11-25T03:25:05;100440.13;;;7.63;100.00
2268;BME280;11052;43.338;25.502;2022-11-25T03:27:33;100448.72;;;7.64;100.00
2268;BME280;11052;43.338;25.502;2022-11-25T03:30:02;100446.22;;;7.57;100.00
2268;BME280;11052;43.338;25.502;2022-11-25T03:32:30;100445.25;;;7.65;100.00
2268;BME280;11052;43.338;25.502;2022-11-25T03:34:57;100448.84;;;7.54;100.00
2268;BME280;11052;43.338;25.502;2022-11-25T03:37:24;100454.75;;;7.63;100.00
2268;BME280;11052;43.338;25.502;2022-11-25T03:39:52;100449.66;;;7.58;100.00
2268;BME280;11052;43.338;25.502;2022-11-25T03:42:19;100449.72;;;7.55;100.00
2268;BME280;11052;43.338;25.502;2022-11-25T03:44:46;100450.47;;;7.62;100.00
2268;BME280;11052;43.338;25.502;2022-11-25T03:47:14;100439.41;;;7.53;100.00
2268;BME280;11052;43.338;25.502;2022-11-25T03:49:41;100448.84;;;7.56;100.00
2268;BME280;11052;43.338;25.502;2022-11-25T03:52:08;100447.94;;;7.59;100.00
2268;BME280;11052;43.338;25.502;2022-11-25T03:54:35;100446.16;;;7.62;100.00
2268;BME280;11052;43.338;25.502;2022-11-25T03:57:02;100455.44;;;7.74;100.00
2268;BME280;11052;43.338;25.502;2022-11-25T03:59:30;100450.41;;;7.66;100.00
2268;BME280;11052;43.338;25.502;2022-11-25T04:01:57;100449.53;;;7.66;100.00
2268;BME280;11052;43.338;25.502;2022-11-25T04:04:25;100453.00;;;7.65;100.00
2268;BME280;11052;43.338;25.502;2022-11-25T04:06:52;100452.06;;;7.70;100.00
2268;BME280;11052;43.338;25.502;2022-11-25T04:09:20;100466.81;;;7.61;100.00
2268;BME280;11052;43.338;25.502;2022-11-25T04:11:47;100464.22;;;7.62;100.00
2268;BME280;11052;43.338;25.502;2022-11-25T04:14:31;100471.94;;;7.64;100.00
2268;BME280;11052;43.338;25.502;2022-11-25T04:16:58;100475.41;;;7.61;100.00
2268;BME280;11052;43.338;25.502;2022-11-25T04:19:27;100483.06;;;7.67;100.00
2268;BME280;11052;43.338;25.502;2022-11-25T04:21:54;100482.31;;;7.59;100.00
2268;BME280;11052;43.338;25.502;2022-11-25T04:24:24;100479.81;;;7.54;100.00
2268;BME280;11052;43.338;25.502;2022-11-25T04:26:51;100482.22;;;7.67;100.00
2268;BME280;11052;43.338;25.502;2022-11-25T04:29:18;100481.50;;;7.57;100.00
2268;BME280;11052;43.338;25.502;2022-11-25T04:31:45;100494.22;;;7.68;100.00
2268;BME280;11052;43.338;25.502;2022-11-25T04:34:13;100487.31;;;7.70;100.00
2268;BME280;11052;43.338;25.502;2022-11-25T04:36:41;100486.44;;;7.72;100.00
2268;BME280;11052;43.338;25.502;2022-11-25T04:39:08;100489.19;;;7.60;100.00
2268;BME280;11052;43.338;25.502;2022-11-25T04:41:35;100492.63;;;7.61;100.00
2268;BME280;11052;43.338;25.502;2022-11-25T04:44:03;100490.78;;;7.69;100.00
2268;BME280;11052;43.338;25.502;2022-11-25T04:46:33;100485.81;;;7.56;100.00
2268;BME280;11052;43.338;25.502;2022-11-25T04:49:02;100487.53;;;7.56;100.00
2268;BME280;11052;43.338;25.502;2022-11-25T04:51:29;100501.19;;;7.63;100.00
2268;BME280;11052;43.338;25.502;2022-11-25T04:53:58;100499.47;;;7.63;100.00
2268;BME280;11052;43.338;25.502;2022-11-25T04:56:25;100500.31;;;7.64;100.00
2268;BME280;11052;43.338;25.502;2022-11-25T04:58:52;100497.84;;;7.56;100.00
2268;BME280;11052;43.338;25.502;2022-11-25T05:01:36;100502.97;;;7.59;100.00
2268;BME280;11052;43.338;25.502;2022-11-25T05:04:03;100511.50;;;7.63;100.00
2268;BME280;11052;43.338;25.502;2022-11-25T05:06:31;100510.78;;;7.53;100.00
2268;BME280;11052;43.338;25.502;2022-11-25T05:08:59;100522.03;;;7.47;100.00
2268;BME280;11052;43.338;25.502;2022-11-25T05:11:26;100517.59;;;7.57;100.00
2268;BME280;11052;43.338;25.502;2022-11-25T05:13:53;100528.72;;;7.62;100.00
2268;BME280;11052;43.338;25.502;2022-11-25T05:16:20;100532.31;;;7.50;100.00
2268;BME280;11052;43.338;25.502;2022-11-25T05:18:48;100532.34;;;7.47;100.00
2268;BME280;11052;43.338;25.502;2022-11-25T05:21:15;100534.97;;;7.46;100.00
2268;BME280;11052;43.338;25.502;2022-11-25T05:23:42;100529.75;;;7.50;100.00
2268;BME280;11052;43.338;25.502;2022-11-25T05:26:10;100538.28;;;7.54;100.00
2268;BME280;11052;43.338;25.502;2022-11-25T05:28:37;100542.72;;;7.44;100.00
2268;BME280;11052;43.338;25.502;2022-11-25T05:31:05;100553.75;;;7.54;100.00
2268;BME280;11052;43.338;25.502;2022-11-25T05:33:32;100558.09;;;7.52;100.00
2268;BME280;11052;43.338;25.502;2022-11-25T05:36:02;100555.50;;;7.52;100.00
2268;BME280;11052;43.338;25.502;2022-11-25T05:38:29;100557.25;;;7.50;100.00
2268;BME280;11052;43.338;25.502;2022-11-25T05:41:00;100558.13;;;7.49;100.00
2268;BME280;11052;43.338;25.502;2022-11-25T05:43:29;100567.63;;;7.45;100.00
2268;BME280;11052;43.338;25.502;2022-11-25T05:45:57;100572.75;;;7.50;100.00
2268;BME280;11052;43.338;25.502;2022-11-25T05:48:24;100576.16;;;7.50;100.00
2268;BME280;11052;43.338;25.502;2022-11-25T05:50:51;100589.09;;;7.47;100.00
2268;BME280;11052;43.338;25.502;2022-11-25T05:53:18;100595.16;;;7.45;100.00
2268;BME280;11052;43.338;25.502;2022-11-25T05:55:53;100600.34;;;7.42;100.00
2268;BME280;11052;43.338;25.502;2022-11-25T05:58:21;100598.59;;;7.44;100.00
2268;BME280;11052;43.338;25.502;2022-11-25T06:00:49;100599.53;;;7.38;100.00
2268;BME280;11052;43.338;25.502;2022-11-25T06:03:17;100607.31;;;7.35;100.00
2268;BME280;11052;43.338;25.502;2022-11-25T06:05:44;100606.41;;;7.38;100.00
2268;BME280;11052;43.338;25.502;2022-11-25T06:08:11;100615.81;;;7.43;100.00
2268;BME280;11052;43.338;25.502;2022-11-25T06:10:39;100613.28;;;7.39;100.00
2268;BME280;11052;43.338;25.502;2022-11-25T06:13:06;100620.09;;;7.44;100.00
2268;BME280;11052;43.338;25.502;2022-11-25T06:15:33;100619.25;;;7.42;100.00
2268;BME280;11052;43.338;25.502;2022-11-25T06:18:02;100630.44;;;7.43;100.00
2268;BME280;11052;43.338;25.502;2022-11-25T06:20:29;100626.09;;;7.45;100.00
2268;BME280;11052;43.338;25.502;2022-11-25T06:22:57;100634.69;;;7.45;100.00
2268;BME280;11052;43.338;25.502;2022-11-25T06:25:25;100644.97;;;7.48;100.00
2268;BME280;11052;43.338;25.502;2022-11-25T06:27:52;100645.69;;;7.61;100.00
2268;BME280;11052;43.338;25.502;2022-11-25T06:30:19;100644.06;;;7.52;100.00
2268;BME280;11052;43.338;25.502;2022-11-25T06:32:46;100645.75;;;7.56;100.00
2268;BME280;11052;43.338;25.502;2022-11-25T06:35:15;100649.22;;;7.54;100.00
2268;BME280;11052;43.338;25.502;2022-11-25T06:37:42;100654.38;;;7.52;100.00
2268;BME280;11052;43.338;25.502;2022-11-25T06:40:10;100657.84;;;7.50;100.00
2268;BME280;11052;43.338;25.502;2022-11-25T06:42:37;100657.84;;;7.50;100.00
2268;BME280;11052;43.338;25.502;2022-11-25T06:45:06;100662.19;;;7.48;100.00
2268;BME280;11052;43.338;25.502;2022-11-25T06:47:33;100661.38;;;7.43;100.00
2268;BME280;11052;43.338;25.502;2022-11-25T06:50:00;100668.13;;;7.54;100.00
2268;BME280;11052;43.338;25.502;2022-11-25T06:52:30;100672.75;;;7.94;100.00
2268;BME280;11052;43.338;25.502;2022-11-25T06:54:57;100668.91;;;8.22;100.00
2268;BME280;11052;43.338;25.502;2022-11-25T06:57:24;100665.75;;;8.62;100.00
2268;BME280;11052;43.338;25.502;2022-11-25T06:59:51;100669.69;;;8.83;100.00
2268;BME280;11052;43.338;25.502;2022-11-25T07:02:19;100672.78;;;9.03;100.00
2268;BME280;11052;43.338;25.502;2022-11-25T07:04:46;100671.88;;;9.06;100.00
2268;BME280;11052;43.338;25.502;2022-11-25T07:07:13;100674.28;;;9.16;100.00
2268;BME280;11052;43.338;25.502;2022-11-25T07:09:41;100682.03;;;9.16;100.00
2268;BME280;11052;43.338;25.502;2022-11-25T07:12:09;100682.56;;;9.35;100.00
2268;BME280;11052;43.338;25.502;2022-11-25T07:14:37;100687.56;;;9.44;100.00
2268;BME280;11052;43.338;25.502;2022-11-25T07:17:04;100686.38;;;9.59;100.00
2268;BME280;11052;43.338;25.502;2022-11-25T07:19:31;100694.91;;;9.64;100.00
2268;BME280;11052;43.338;25.502;2022-11-25T07:22:00;100690.31;;;9.78;100.00
2268;BME280;11052;43.338;25.502;2022-11-25T07:24:27;100696.94;;;9.92;100.00
2268;BME280;11052;43.338;25.502;2022-11-25T07:26:56;100691.66;;;9.96;100.00
2268;BME280;11052;43.338;25.502;2022-11-25T07:29:23;100696.72;;;10.02;100.00
2268;BME280;11052;43.338;25.502;2022-11-25T07:31:50;100692.19;;;10.12;100.00
2268;BME280;11052;43.338;25.502;2022-11-25T07:34:19;100692.69;;;10.29;100.00
2268;BME280;11052;43.338;25.502;2022-11-25T07:36:47;100699.38;;;10.39;100.00
2268;BME280;11052;43.338;25.502;2022-11-25T07:39:16;100707.31;;;10.32;100.00
2268;BME280;11052;43.338;25.502;2022-11-25T07:41:44;100714.25;;;10.31;100.00
2268;BME280;11052;43.338;25.502;2022-11-25T07:44:14;100711.41;;;10.40;100.00
2268;BME280;11052;43.338;25.502;2022-11-25T07:46:42;100720.75;;;10.47;100.00
2268;BME280;11052;43.338;25.502;2022-11-25T07:49:11;100727.16;;;10.33;100.00
2268;BME280;11052;43.338;25.502;2022-11-25T07:51:41;100723.66;;;9.94;100.00
2268;BME280;11052;43.338;25.502;2022-11-25T07:54:10;100722.31;;;9.74;100.00
2268;BME280;11052;43.338;25.502;2022-11-25T07:56:39;100731.66;;;9.81;100.00
2268;BME280;11052;43.338;25.502;2022-11-25T07:59:09;100743.81;;;9.78;100.00
2268;BME280;11052;43.338;25.502;2022-11-25T08:01:39;100736.09;;;9.76;100.00
2268;BME280;11052;43.338;25.502;2022-11-25T08:04:06;100741.13;;;9.82;100.00
2268;BME280;11052;43.338;25.502;2022-11-25T08:06:37;100740.53;;;9.70;100.00
2268;BME280;11052;43.338;25.502;2022-11-25T08:09:05;100742.00;;;9.83;100.00
2268;BME280;11052;43.338;25.502;2022-11-25T08:11:32;100743.50;;;9.93;100.00
2268;BME280;11052;43.338;25.502;2022-11-25T08:13:59;100740.91;;;9.95;100.00
2268;BME280;11052;43.338;25.502;2022-11-25T08:16:28;100748.31;;;10.11;100.00
2268;BME280;11052;43.338;25.502;2022-11-25T08:18:59;100753.91;;;10.35;100.00
2268;BME280;11052;43.338;25.502;2022-11-25T08:21:27;100745.84;;;10.45;100.00
2268;BME280;11052;43.338;25.502;2022-11-25T08:23:54;100751.41;;;10.67;100.00
2268;BME280;11052;43.338;25.502;2022-11-25T08:26:23;100752.75;;;10.83;100.00
2268;BME280;11052;43.338;25.502;2022-11-25T08:28:51;100751.28;;;11.09;100.00
2268;BME280;11052;43.338;25.502;2022-11-25T08:31:20;100760.66;;;11.14;100.00
2268;BME280;11052;43.338;25.502;2022-11-25T08:33:49;100759.34;;;11.31;100.00
2268;BME280;11052;43.338;25.502;2022-11-25T08:36:18;100760.88;;;11.38;100.00
2268;BME280;11052;43.338;25.502;2022-11-25T08:38:47;100766.28;;;11.30;100.00
2268;BME280;11052;43.338;25.502;2022-11-25T08:41:17;100761.81;;;11.03;100.00
2268;BME280;11052;43.338;25.502;2022-11-25T08:43:45;100761.28;;;10.89;100.00
2268;BME280;11052;43.338;25.502;2022-11-25T08:46:14;100771.13;;;10.74;100.00
2268;BME280;11052;43.338;25.502;2022-11-25T08:48:42;100774.06;;;10.59;100.00
2268;BME280;11052;43.338;25.502;2022-11-25T08:51:11;100772.28;;;10.61;100.00
2268;BME280;11052;43.338;25.502;2022-11-25T08:53:41;100776.06;;;10.46;100.00
2268;BME280;11052;43.338;25.502;2022-11-25T08:56:08;100778.19;;;10.31;100.00
2268;BME280;11052;43.338;25.502;2022-11-25T08:58:36;100778.22;;;10.29;100.00
2268;BME280;11052;43.338;25.502;2022-11-25T09:01:04;100776.69;;;10.17;100.00
2268;BME280;11052;43.338;25.502;2022-11-25T09:03:31;100775.81;;;10.18;100.00
2268;BME280;11052;43.338;25.502;2022-11-25T09:05:59;100778.53;;;10.12;100.00
2268;BME280;11052;43.338;25.502;2022-11-25T09:08:26;100777.88;;;10.01;100.00
2268;BME280;11052;43.338;25.502;2022-11-25T09:10:56;100784.78;;;10.02;100.00
2268;BME280;11052;43.338;25.502;2022-11-25T09:13:24;100786.00;;;9.83;100.00
2268;BME280;11052;43.338;25.502;2022-11-25T09:15:51;100779.13;;;9.82;100.00
2268;BME280;11052;43.338;25.502;2022-11-25T09:18:18;100781.59;;;9.88;100.00
2268;BME280;11052;43.338;25.502;2022-11-25T09:20:50;100790.38;;;9.81;100.00
2268;BME280;11052;43.338;25.502;2022-11-25T09:23:18;100784.16;;;9.90;100.00
2268;BME280;11052;43.338;25.502;2022-11-25T09:25:50;100792.09;;;9.80;100.00
2268;BME280;11052;43.338;25.502;2022-11-25T09:28:19;100790.41;;;9.78;100.00
2268;BME280;11052;43.338;25.502;2022-11-25T09:30:46;100794.75;;;9.77;100.00
2268;BME280;11052;43.338;25.502;2022-11-25T09:33:14;100793.94;;;9.74;100.00
2268;BME280;11052;43.338;25.502;2022-11-25T09:35:41;100788.59;;;9.83;100.00
2268;BME280;11052;43.338;25.502;2022-11-25T09:38:09;100787.72;;;9.84;100.00
2268;BME280;11052;43.338;25.502;2022-11-25T09:40:42;100788.75;;;9.75;100.00
2268;BME280;11052;43.338;25.502;2022-11-25T09:43:20;100784.38;;;9.77;100.00
2268;BME280;11052;43.338;25.502;2022-11-25T09:46:17;100780.81;;;9.84;100.00
2268;BME280;11052;43.338;25.502;2022-11-25T09:49:13;100792.06;;;9.82;100.00
2268;BME280;11052;43.338;25.502;2022-11-25T09:51:53;100789.75;;;9.67;100.00
2268;BME280;11052;43.338;25.502;2022-11-25T09:54:28;100787.19;;;9.67;100.00
2268;BME280;11052;43.338;25.502;2022-11-25T09:57:03;100789.69;;;9.71;100.00
2268;BME280;11052;43.338;25.502;2022-11-25T09:59:42;100795.72;;;9.72;100.00
2268;BME280;11052;43.338;25.502;2022-11-25T10:02:18;100793.97;;;9.72;100.00
2268;BME280;11052;43.338;25.502;2022-11-25T10:04:50;100797.31;;;9.79;100.00
2268;BME280;11052;43.338;25.502;2022-11-25T10:07:23;100792.00;;;9.85;100.00
2268;BME280;11052;43.338;25.502;2022-11-25T10:09:55;100786.66;;;9.94;100.00
2268;BME280;11052;43.338;25.502;2022-11-25T10:12:24;100791.78;;;9.97;100.00
2268;BME280;11052;43.338;25.502;2022-11-25T10:14:58;100793.13;;;10.16;100.00
2268;BME280;11052;43.338;25.502;2022-11-25T10:17:32;100796.53;;;10.18;100.00
2268;BME280;11052;43.338;25.502;2022-11-25T10:20:09;100797.56;;;10.10;100.00
2268;BME280;11052;43.338;25.502;2022-11-25T10:22:41;100792.31;;;10.13;100.00
2268;BME280;11052;43.338;25.502;2022-11-25T10:25:14;100790.59;;;10.13;100.00
2268;BME280;11052;43.338;25.502;2022-11-25T10:27:44;100787.16;;;10.13;100.00
2268;BME280;11052;43.338;25.502;2022-11-25T10:30:18;100788.72;;;10.22;100.00
2268;BME280;11052;43.338;25.502;2022-11-25T10:32:50;100784.19;;;10.33;100.00
2268;BME280;11052;43.338;25.502;2022-11-25T10:35:22;100783.97;;;10.40;100.00
2268;BME280;11052;43.338;25.502;2022-11-25T10:37:51;100791.28;;;10.23;100.00
2268;BME280;11052;43.338;25.502;2022-11-25T10:40:20;100797.22;;;10.28;100.00
2268;BME280;11052;43.338;25.502;2022-11-25T10:42:48;100794.03;;;10.14;100.00
2268;BME280;11052;43.338;25.502;2022-11-25T10:45:20;100789.78;;;10.10;100.00
2268;BME280;11052;43.338;25.502;2022-11-25T10:50:52;100782.72;;;10.20;100.00
2268;BME280;11052;43.338;25.502;2022-11-25T10:53:23;100787.22;;;10.10;100.00
2268;BME280;11052;43.338;25.502;2022-11-25T10:55:59;100794.13;;;10.09;100.00
2268;BME280;11052;43.338;25.502;2022-11-25T10:58:33;100794.13;;;10.09;100.00
2268;BME280;11052;43.338;25.502;2022-11-25T11:01:12;100788.09;;;10.09;100.00
2268;BME280;11052;43.338;25.502;2022-11-25T11:03:42;100788.81;;;10.15;100.00
2268;BME280;11052;43.338;25.502;2022-11-25T11:06:31;100786.94;;;10.25;100.00
2268;BME280;11052;43.338;25.502;2022-11-25T11:08:59;100793.78;;;10.28;100.00
2268;BME280;11052;43.338;25.502;2022-11-25T11:11:26;100793.91;;;10.22;100.00
2268;BME280;11052;43.338;25.502;2022-11-25T11:13:59;100791.19;;;10.28;100.00
2268;BME280;11052;43.338;25.502;2022-11-25T11:16:41;100792.94;;;10.27;100.00
2268;BME280;11052;43.338;25.502;2022-11-25T11:19:23;100787.63;;;10.33;100.00
2268;BME280;11052;43.338;25.502;2022-11-25T11:21:51;100791.97;;;10.31;100.00
2268;BME280;11052;43.338;25.502;2022-11-25T11:24:27;100788.41;;;10.37;100.00
2268;BME280;11052;43.338;25.502;2022-11-25T11:27:04;100796.56;;;10.17;100.00
2268;BME280;11052;43.338;25.502;2022-11-25T11:29:33;100787.69;;;10.30;100.00
2268;BME280;11052;43.338;25.502;2022-11-25T11:32:03;100789.63;;;10.19;100.00
2268;BME280;11052;43.338;25.502;2022-11-25T11:34:46;100788.81;;;10.15;100.00
2268;BME280;11052;43.338;25.502;2022-11-25T11:37:29;100786.00;;;10.28;100.00
2268;BME280;11052;43.338;25.502;2022-11-25T11:40:20;100780.72;;;10.32;100.00
2268;BME280;11052;43.338;25.502;2022-11-25T11:43:00;100780.69;;;10.34;100.00
2268;BME280;11052;43.338;25.502;2022-11-25T11:45:39;100773.81;;;10.33;100.00
2268;BME280;11052;43.338;25.502;2022-11-25T11:48:20;100781.72;;;10.27;100.00
2268;BME280;11052;43.338;25.502;2022-11-25T11:50:55;100775.59;;;10.31;100.00
2268;BME280;11052;43.338;25.502;2022-11-25T11:53:30;100777.97;;;10.40;100.00
2268;BME280;11052;43.338;25.502;2022-11-25T11:56:01;100779.19;;;10.62;100.00
2268;BME280;11052;43.338;25.502;2022-11-25T11:58:43;100774.09;;;10.95;100.00
2268;BME280;11052;43.338;25.502;2022-11-25T12:01:28;100780.53;;;11.15;100.00
2268;BME280;11052;43.338;25.502;2022-11-25T12:04:11;100778.47;;;11.27;100.00
2268;BME280;11052;43.338;25.502;2022-11-25T12:06:44;100777.59;;;11.28;100.00
2268;BME280;11052;43.338;25.502;2022-11-25T12:09:18;100775.25;;;11.19;100.00
2268;BME280;11052;43.338;25.502;2022-11-25T12:11:52;100775.94;;;11.25;100.00
2268;BME280;11052;43.338;25.502;2022-11-25T12:14:31;100773.81;;;11.39;100.00
2268;BME280;11052;43.338;25.502;2022-11-25T12:17:02;100776.66;;;11.30;100.00
2268;BME280;11052;43.338;25.502;2022-11-25T12:19:42;100777.81;;;11.20;100.00
2268;BME280;11052;43.338;25.502;2022-11-25T12:22:17;100793.81;;;11.02;100.00
2268;BME280;11052;43.338;25.502;2022-11-25T12:24:50;100796.72;;;10.90;100.00
2268;BME280;11052;43.338;25.502;2022-11-25T12:27:22;100798.31;;;10.57;100.00
2268;BME280;11052;43.338;25.502;2022-11-25T12:29:59;100794.06;;;10.54;100.00
2268;BME280;11052;43.338;25.502;2022-11-25T12:32:54;100791.06;;;10.34;100.00
2268;BME280;11052;43.338;25.502;2022-11-25T12:35:33;100796.38;;;10.28;100.00
2268;BME280;11052;43.338;25.502;2022-11-25T12:38:16;100800.84;;;10.18;100.00
2268;BME280;11052;43.338;25.502;2022-11-25T12:40:50;100801.91;;;10.09;100.00
2268;BME280;11052;43.338;25.502;2022-11-25T12:43:24;100795.00;;;10.08;100.00
2268;BME280;11052;43.338;25.502;2022-11-25T12:46:03;100797.56;;;10.10;100.00
2268;BME280;11052;43.338;25.502;2022-11-25T12:48:31;100798.41;;;10.12;100.00
2268;BME280;11052;43.338;25.502;2022-11-25T12:51:07;100801.13;;;10.04;100.00
2268;BME280;11052;43.338;25.502;2022-11-25T12:53:42;100796.78;;;10.06;100.00
2268;BME280;11052;43.338;25.502;2022-11-25T12:56:17;100802.81;;;10.07;100.00
2268;BME280;11052;43.338;25.502;2022-11-25T12:58:52;100798.47;;;10.07;100.00
2268;BME280;11052;43.338;25.502;2022-11-25T13:01:53;100799.09;;;10.22;100.00
2268;BME280;11052;43.338;25.502;2022-11-25T13:04:34;100801.19;;;10.44;100.00
2268;BME280;11052;43.338;25.502;2022-11-25T13:07:24;100809.59;;;10.54;100.00